Time;durP1;ratioP1;P1;durP2;ratioP2;P2;SDS_P1;SDS_P2;PMS_P1;PMS_P2;Temp;Humidity;BMP_temperature;BMP_pressure;BME280_temperature;BME280_humidity;BME280_pressure;Samples;Min_cycle;Max_cycle;Signal;HPM_P1;HPM_P2
2022/06/18 00:01:58;;;;;;;3.13;2.10;;;;;;;22.88;50.54;101623.72;5048213;28;20045;-76
2022/06/18 00:04:26;;;;;;;10.07;2.35;;;;;;;22.86;51.30;101625.66;5030654;28;20042;-76
2022/06/18 00:07:02;;;;;;;4.68;1.90;;;;;;;22.80;51.08;101618.88;5048303;28;20050;-75
2022/06/18 00:09:41;;;;;;;4.47;2.17;;;;;;;22.80;51.32;101619.72;5041702;28;20041;-76
2022/06/18 00:15:16;;;;;;;3.20;2.10;;;;;;;22.90;50.99;101614.56;5033523;28;20144;-78
2022/06/18 00:17:47;;;;;;;2.53;1.80;;;;;;;22.93;51.17;101619.75;5041438;28;20034;-80
2022/06/18 00:20:18;;;;;;;3.95;2.30;;;;;;;22.94;51.15;101621.44;5035769;28;20046;-78
2022/06/18 00:22:52;;;;;;;6.38;2.40;;;;;;;22.94;50.90;101625.97;5039181;28;20045;-79
2022/06/18 00:25:31;;;;;;;4.07;2.13;;;;;;;22.92;51.07;101625.22;5045674;28;20046;-80
2022/06/18 00:27:59;;;;;;;5.60;2.30;;;;;;;22.87;51.44;101622.84;5042000;28;20042;-80
2022/06/18 00:30:29;;;;;;;3.08;2.15;;;;;;;22.82;51.60;101624.13;5031994;28;20046;-79
2022/06/18 00:32:58;;;;;;;3.55;2.05;;;;;;;22.76;51.60;101631.69;5030741;28;20062;-76
2022/06/18 00:35:25;;;;;;;2.78;2.22;;;;;;;22.71;51.69;101623.06;5030754;28;20046;-77
2022/06/18 00:37:59;;;;;;;4.07;2.38;;;;;;;22.65;51.39;101618.13;5037329;28;20109;-77
2022/06/18 00:40:41;;;;;;;3.40;2.78;;;;;;;22.59;51.63;101623.91;5033889;28;20054;-78
2022/06/18 00:43:27;;;;;;;6.13;2.42;;;;;;;22.56;52.51;101624.13;5046853;28;20052;-78
2022/06/18 00:46:33;;;;;;;3.70;2.25;;;;;;;22.51;52.41;101627.16;5033290;28;20819;-78
2022/06/18 00:49:36;;;;;;;4.00;2.40;;;;;;;22.43;52.24;101618.75;5030897;28;20048;-76
2022/06/18 00:52:17;;;;;;;5.82;2.33;;;;;;;22.37;52.56;101617.31;5031210;28;20460;-76
2022/06/18 00:55:02;;;;;;;3.53;2.15;;;;;;;22.31;52.20;101613.22;5032652;28;20129;-77
2022/06/18 00:57:41;;;;;;;4.53;2.15;;;;;;;22.28;52.77;101612.56;5045808;28;20049;-78
2022/06/18 01:00:19;;;;;;;3.00;2.03;;;;;;;22.20;52.79;101613.09;5050096;28;20119;-77
2022/06/18 01:02:48;;;;;;;5.80;2.60;;;;;;;22.13;53.41;101611.78;5048144;28;20038;-78
2022/06/18 01:05:25;;;;;;;5.10;2.33;;;;;;;22.07;53.73;101620.22;5031044;28;20152;-77
2022/06/18 01:08:01;;;;;;;4.47;2.42;;;;;;;21.99;54.09;101616.25;5045020;28;21038;-78
2022/06/18 01:10:43;;;;;;;3.00;2.30;;;;;;;21.88;54.27;101619.63;5038911;28;20037;-76
2022/06/18 01:13:20;;;;;;;10.55;2.90;;;;;;;21.76;54.62;101620.47;5049730;28;20057;-75
2022/06/18 01:15:49;;;;;;;2.78;2.50;;;;;;;21.63;55.32;101617.69;5031826;28;20069;-75
2022/06/18 01:18:17;;;;;;;4.57;2.72;;;;;;;21.53;55.53;101620.09;5045118;28;20495;-76
2022/06/18 01:21:25;;;;;;;6.85;3.38;;;;;;;21.43;55.48;101610.91;5034335;28;20128;-76
2022/06/18 01:24:19;;;;;;;6.25;2.50;;;;;;;21.34;55.92;101609.66;5013366;28;20050;-76
2022/06/18 01:26:52;;;;;;;3.80;2.67;;;;;;;21.28;56.21;101601.16;5033101;28;20038;-74
2022/06/18 01:29:20;;;;;;;4.35;2.60;;;;;;;21.24;55.75;101604.06;5036569;28;20099;-76
2022/06/18 01:31:48;;;;;;;3.67;2.50;;;;;;;21.20;56.48;101590.94;5051678;28;20041;-78
2022/06/18 01:34:16;;;;;;;3.17;2.38;;;;;;;21.15;56.12;101593.91;5040690;28;20069;-76
2022/06/18 01:36:51;;;;;;;4.88;2.67;;;;;;;21.12;56.22;101594.09;5044472;28;20050;-77
2022/06/18 01:39:26;;;;;;;4.75;2.28;;;;;;;21.09;56.67;101587.13;5052602;28;20057;-77
2022/06/18 01:42:08;;;;;;;5.03;2.45;;;;;;;21.13;56.43;101587.78;5047913;28;20065;-76
2022/06/18 01:44:56;;;;;;;6.25;2.70;;;;;;;21.15;56.62;101595.72;5059735;28;20238;-76
2022/06/18 01:47:43;;;;;;;3.17;2.50;;;;;;;21.17;56.62;101597.34;5050562;28;20483;-75
2022/06/18 01:50:23;;;;;;;5.88;2.20;;;;;;;21.20;56.18;101598.97;5049631;28;20037;-76
2022/06/18 01:53:10;;;;;;;5.10;2.63;;;;;;;21.21;56.60;101589.97;5033001;28;20382;-76
2022/06/18 01:55:52;;;;;;;3.78;2.40;;;;;;;21.24;56.71;101593.31;5031893;28;20450;-75
2022/06/18 01:58:30;;;;;;;5.05;2.30;;;;;;;21.25;56.62;101586.13;5036813;28;20046;-75
2022/06/18 02:01:03;;;;;;;4.22;2.50;;;;;;;21.25;56.96;101591.50;5031812;28;20045;-75
2022/06/18 02:03:30;;;;;;;5.22;2.70;;;;;;;21.25;56.89;101591.50;5033347;28;20045;-73
2022/06/18 02:06:00;;;;;;;4.07;2.70;;;;;;;21.23;57.15;101593.41;5037234;28;20056;-73
2022/06/18 02:08:30;;;;;;;3.00;2.58;;;;;;;21.19;57.48;101590.06;5031962;28;20046;-74
2022/06/18 02:11:03;;;;;;;3.17;2.80;;;;;;;21.17;57.96;101594.66;5048691;28;20054;-74
2022/06/18 02:13:59;;;;;;;3.83;2.33;;;;;;;21.10;58.12;101582.59;5032907;28;20037;-73
2022/06/18 02:16:35;;;;;;;5.07;2.70;;;;;;;21.07;57.83;101585.47;5044494;28;20726;-73
2022/06/18 02:19:05;;;;;;;4.47;2.70;;;;;;;21.04;58.25;101578.50;5035968;28;20081;-73
2022/06/18 02:21:42;;;;;;;6.20;3.05;;;;;;;21.02;58.08;101574.19;5032783;28;20045;-74
2022/06/18 02:24:10;;;;;;;8.25;2.83;;;;;;;20.98;58.63;101570.84;5048333;28;20481;-74
2022/06/18 02:26:40;;;;;;;4.13;3.00;;;;;;;20.97;58.49;101565.56;5037959;28;20155;-77
2022/06/18 02:29:28;;;;;;;5.47;3.00;;;;;;;20.97;58.38;101577.16;5047124;28;20546;-76
2022/06/18 02:31:55;;;;;;;5.25;2.97;;;;;;;20.97;59.15;101571.81;5033633;28;20046;-76
2022/06/18 02:34:30;;;;;;;5.53;2.92;;;;;;;21.01;58.63;101569.78;5037116;28;20038;-76
2022/06/18 02:37:01;;;;;;;4.68;3.00;;;;;;;21.02;58.68;101577.72;5045337;28;20037;-75
2022/06/18 02:39:39;;;;;;;5.53;3.15;;;;;;;20.96;58.77;101559.34;5050012;28;20101;-77
2022/06/18 02:42:14;;;;;;;5.03;3.13;;;;;;;20.92;58.89;101560.50;5052018;28;20797;-76
2022/06/18 02:44:46;;;;;;;3.95;2.60;;;;;;;20.87;59.08;101567.97;5038691;28;20121;-76
2022/06/18 02:47:16;;;;;;;4.32;3.22;;;;;;;20.84;59.53;101573.53;5031927;28;20049;-75
2022/06/18 02:50:01;;;;;;;5.70;3.55;;;;;;;20.81;59.58;101574.59;5046812;28;20175;-75
2022/06/18 02:52:37;;;;;;;5.22;3.03;;;;;;;20.77;59.63;101575.72;5047832;28;20045;-74
2022/06/18 02:55:40;;;;;;;6.35;3.38;;;;;;;20.74;59.29;101575.94;5033065;28;20530;-75
2022/06/18 02:58:17;;;;;;;7.45;2.70;;;;;;;20.71;59.59;101576.91;5028768;28;20161;-75
2022/06/18 03:00:54;;;;;;;4.25;3.30;;;;;;;20.71;59.62;101576.91;5037590;28;20125;-74
2022/06/18 03:03:29;;;;;;;4.97;3.20;;;;;;;20.68;59.43;101574.44;5042625;28;20038;-76
2022/06/18 03:05:57;;;;;;;4.20;3.30;;;;;;;20.69;59.65;101576.19;5031381;28;20046;-76
2022/06/18 03:08:30;;;;;;;4.47;3.20;;;;;;;20.70;59.64;101587.75;5035531;28;20048;-75
2022/06/18 03:13:45;;;;;;;6.40;3.50;;;;;;;20.69;59.93;101592.25;5031090;28;20536;-75
2022/06/18 03:16:19;;;;;;;7.38;3.55;;;;;;;20.68;59.34;101590.53;5044548;28;20053;-78
2022/06/18 03:18:52;;;;;;;5.47;3.53;;;;;;;20.69;59.77;101591.38;5046757;28;20068;-77
2022/06/18 03:21:34;;;;;;;8.05;3.28;;;;;;;20.71;59.66;101594.81;5031174;28;20049;-78
2022/06/18 03:24:03;;;;;;;7.47;3.58;;;;;;;20.74;60.04;101587.50;5040248;28;20046;-78
2022/06/18 03:26:35;;;;;;;6.28;3.45;;;;;;;20.74;59.95;101586.63;5031421;28;20496;-77
2022/06/18 03:29:07;;;;;;;7.40;3.40;;;;;;;20.75;59.66;101585.69;5047363;28;20045;-77
2022/06/18 03:31:35;;;;;;;9.77;4.22;;;;;;;20.75;59.65;101589.22;5037224;28;20042;-75
2022/06/18 03:34:04;;;;;;;6.85;3.75;;;;;;;20.76;59.71;101587.38;5042724;28;20046;-75
2022/06/18 03:36:34;;;;;;;7.03;3.60;;;;;;;20.78;59.78;101589.03;5044461;28;20076;-75
2022/06/18 03:39:03;;;;;;;5.03;3.65;;;;;;;20.79;59.89;101592.56;5037133;28;20053;-76
2022/06/18 03:41:31;;;;;;;5.28;3.58;;;;;;;20.82;59.48;101591.50;5047395;28;20045;-76
2022/06/18 03:43:58;;;;;;;7.95;3.53;;;;;;;20.83;59.64;101601.25;5046919;28;20041;-77
2022/06/18 03:46:29;;;;;;;5.55;3.70;;;;;;;20.83;60.09;101601.25;5033756;28;20046;-78
2022/06/18 03:49:04;;;;;;;6.18;3.78;;;;;;;20.83;60.16;101598.59;5045525;28;20033;-74
2022/06/18 03:51:35;;;;;;;4.68;3.67;;;;;;;20.84;59.88;101598.50;5031686;28;20042;-76
2022/06/18 03:54:03;;;;;;;6.20;3.60;;;;;;;20.85;59.79;101602.03;5038643;28;20053;-74
2022/06/18 03:56:33;;;;;;;8.20;4.00;;;;;;;20.87;60.36;101600.97;5032741;28;20042;-74
2022/06/18 03:59:03;;;;;;;7.40;3.90;;;;;;;20.89;59.89;101599.06;5033145;28;20038;-74
2022/06/18 04:01:36;;;;;;;6.88;4.03;;;;;;;20.91;59.88;101593.59;5047368;28;20049;-74
2022/06/18 04:04:03;;;;;;;7.15;3.95;;;;;;;20.96;60.07;101601.38;5030578;28;20042;-75
2022/06/18 04:06:41;;;;;;;9.85;4.00;;;;;;;21.00;59.69;101592.19;5032753;28;20052;-75
2022/06/18 04:09:44;;;;;;;7.25;4.18;;;;;;;21.06;59.74;101591.81;5068728;28;20098;-75
2022/06/18 04:12:18;;;;;;;6.90;4.00;;;;;;;21.15;59.42;101590.34;5041647;28;20123;-75
2022/06/18 04:15:09;;;;;;;8.25;4.18;;;;;;;21.20;59.69;101589.09;5043519;28;20109;-78
2022/06/18 04:17:46;;;;;;;6.20;4.40;;;;;;;21.24;59.69;101592.44;5045823;28;20496;-78
2022/06/18 04:20:26;;;;;;;9.40;4.22;;;;;;;21.31;59.40;101593.81;5018257;28;20042;-76
2022/06/18 04:22:54;;;;;;;11.38;4.50;;;;;;;21.37;59.46;101593.41;5041714;28;20046;-77
2022/06/18 04:25:24;;;;;;;7.97;4.20;;;;;;;21.40;59.07;101587.84;5032096;28;20045;-76
2022/06/18 04:27:51;;;;;;;8.65;4.30;;;;;;;21.46;59.05;101581.22;5039987;28;20053;-78
2022/06/18 04:30:28;;;;;;;7.60;4.60;;;;;;;21.54;58.98;101580.69;5039899;28;20037;-78
2022/06/18 04:33:02;;;;;;;7.13;4.70;;;;;;;21.60;59.23;101585.72;5036672;28;20106;-78
2022/06/18 04:35:35;;;;;;;11.23;4.70;;;;;;;21.67;58.92;101578.97;5047363;28;20056;-76
2022/06/18 04:38:09;;;;;;;5.72;4.47;;;;;;;21.76;58.34;101579.31;5039584;28;20121;-76
2022/06/18 04:41:03;;;;;;;5.95;4.55;;;;;;;21.86;58.24;101575.94;5032201;28;20064;-76
2022/06/18 04:43:39;;;;;;;6.05;4.72;;;;;;;21.94;57.71;101577.25;5056268;28;20120;-76
2022/06/18 04:46:09;;;;;;;8.00;4.22;;;;;;;21.98;57.65;101582.31;5032068;28;20046;-75
2022/06/18 04:48:40;;;;;;;5.55;4.13;;;;;;;22.08;57.52;101573.63;5035001;28;20045;-75
2022/06/18 04:51:09;;;;;;;8.75;5.00;;;;;;;22.14;57.43;101582.13;5047106;28;20041;-75
2022/06/18 04:53:37;;;;;;;8.18;5.03;;;;;;;22.22;57.08;101575.38;5044982;28;20042;-75
2022/06/18 04:56:08;;;;;;;8.82;5.00;;;;;;;22.30;56.77;101576.59;5047126;28;20121;-76
2022/06/18 04:58:37;;;;;;;8.93;4.93;;;;;;;22.41;56.80;101589.28;5051465;28;20057;-76
2022/06/18 05:01:05;;;;;;;10.60;4.80;;;;;;;22.53;56.47;101584.91;5044189;28;20046;-75
2022/06/18 05:03:59;;;;;;;9.82;4.90;;;;;;;22.65;56.23;101589.41;5038140;28;20050;-76
2022/06/18 05:06:44;;;;;;;7.55;4.90;;;;;;;22.75;56.03;101583.38;5045680;28;20042;-74
2022/06/18 05:09:18;;;;;;;5.80;4.55;;;;;;;22.89;55.83;101587.81;5048701;28;20061;-75
2022/06/18 05:12:09;;;;;;;7.45;4.82;;;;;;;23.09;55.39;101592.63;5031757;28;20062;-75
2022/06/18 05:15:08;;;;;;;7.70;4.88;;;;;;;23.34;54.37;101593.56;5037626;28;20054;-75
2022/06/18 05:17:46;;;;;;;11.35;5.28;;;;;;;24.02;53.67;101588.56;5033037;28;20104;-75
2022/06/18 05:20:22;;;;;;;8.05;4.65;;;;;;;24.46;52.58;101586.16;5042565;28;20046;-75
2022/06/18 05:22:53;;;;;;;7.75;4.60;;;;;;;24.89;51.45;101590.03;5040714;28;20145;-76
2022/06/18 05:25:20;;;;;;;9.75;5.47;;;;;;;25.54;49.92;101578.56;5050243;28;20045;-75
2022/06/18 05:27:48;;;;;;;8.57;4.90;;;;;;;26.20;48.53;101578.44;5052279;28;20096;-76
2022/06/18 05:30:32;;;;;;;9.02;5.30;;;;;;;26.85;46.58;101588.22;5041977;28;20037;-76
2022/06/18 05:33:03;;;;;;;9.13;4.80;;;;;;;27.32;45.67;101589.56;5054965;28;20890;-75
2022/06/18 05:35:38;;;;;;;9.25;4.95;;;;;;;27.78;44.91;101589.94;5047707;28;20064;-76
2022/06/18 05:38:06;;;;;;;10.48;5.07;;;;;;;28.21;43.49;101591.38;5047251;28;20041;-75
2022/06/18 05:40:33;;;;;;;9.63;4.90;;;;;;;28.58;42.70;101592.44;5039477;28;20054;-74
2022/06/18 05:43:01;;;;;;;8.52;5.40;;;;;;;28.88;41.85;101588.66;5046420;28;20038;-75
2022/06/18 05:45:29;;;;;;;7.82;4.75;;;;;;;29.22;41.23;101595.34;5052178;28;20064;-76
2022/06/18 05:47:59;;;;;;;6.97;4.72;;;;;;;29.52;40.58;101594.19;5050755;28;20247;-75
2022/06/18 05:50:26;;;;;;;8.35;4.72;;;;;;;29.77;39.93;101597.16;5043755;28;20033;-75
2022/06/18 05:52:53;;;;;;;9.13;4.63;;;;;;;29.98;39.82;101602.31;5039457;28;20048;-75
2022/06/18 05:55:53;;;;;;;7.20;4.80;;;;;;;30.21;38.97;101599.97;5020312;28;20061;-74
2022/06/18 05:58:32;;;;;;;8.70;4.45;;;;;;;30.35;38.76;101593.09;5042233;28;20049;-75
2022/06/18 06:01:20;;;;;;;15.75;5.15;;;;;;;30.57;38.13;101593.63;5034187;28;20104;-75
2022/06/18 06:03:47;;;;;;;16.17;5.13;;;;;;;30.82;37.84;101594.63;5048641;28;20539;-74
2022/06/18 06:06:15;;;;;;;14.45;5.10;;;;;;;31.06;37.77;101593.00;5054791;28;20038;-77
2022/06/18 06:08:46;;;;;;;10.63;5.05;;;;;;;31.23;37.08;101593.09;5043965;28;20160;-77
2022/06/18 06:11:28;;;;;;;10.32;5.18;;;;;;;31.35;36.73;101596.38;5038093;28;20061;-76
2022/06/18 06:14:00;;;;;;;8.40;4.30;;;;;;;31.54;36.17;101589.78;5048094;28;20155;-76
2022/06/18 06:16:29;;;;;;;14.13;4.80;;;;;;;31.67;35.97;101590.13;5036181;28;20034;-76
2022/06/18 06:19:01;;;;;;;;;;;;;;;31.70;35.90;101592.56;5041378;28;20042;-76
2022/06/18 06:21:28;;;;;;;11.05;4.70;;;;;;;31.42;36.03;101587.38;5049146;28;20686;-77
2022/06/18 06:23:55;;;;;;;10.27;4.93;;;;;;;30.50;37.35;101587.06;5050435;28;20041;-78
2022/06/18 06:26:30;;;;;;;8.63;4.47;;;;;;;29.42;39.06;101577.97;5050728;28;20069;-79
2022/06/18 06:28:59;;;;;;;11.80;4.63;;;;;;;28.59;40.49;101581.44;5045251;28;20041;-77
2022/06/18 06:31:26;;;;;;;7.05;4.68;;;;;;;28.00;41.68;101584.22;5051071;28;20037;-75
2022/06/18 06:33:54;;;;;;;11.27;4.70;;;;;;;27.56;42.91;101579.22;5040249;28;20057;-76
2022/06/18 06:36:21;;;;;;;10.50;4.90;;;;;;;27.22;43.79;101579.53;5035458;28;20100;-74
2022/06/18 06:38:49;;;;;;;9.75;4.82;;;;;;;26.97;43.98;101584.44;5038510;28;20128;-76
2022/06/18 06:41:27;;;;;;;15.23;5.10;;;;;;;26.78;45.04;101590.63;5033525;28;20121;-75
2022/06/18 06:43:54;;;;;;;14.18;5.30;;;;;;;26.63;45.59;101591.94;5028429;28;20049;-75
2022/06/18 06:46:26;;;;;;;14.70;5.40;;;;;;;26.51;45.62;101586.63;5040297;28;20038;-73
2022/06/18 06:48:53;;;;;;;9.00;5.38;;;;;;;26.39;46.24;101589.53;5039845;28;20683;-74
2022/06/18 06:51:27;;;;;;;8.93;5.03;;;;;;;26.31;46.30;101590.19;5047605;28;20062;-73
2022/06/18 06:53:54;;;;;;;10.57;4.95;;;;;;;26.29;46.70;101584.91;5049838;28;20033;-72
2022/06/18 06:59:09;;;;;;;9.48;5.50;;;;;;;26.29;46.65;101584.03;5043303;28;20802;-72
2022/06/18 07:01:38;;;;;;;10.43;5.60;;;;;;;26.25;46.83;101580.75;5042869;28;20087;-75
2022/06/18 07:04:11;;;;;;;16.77;5.93;;;;;;;26.18;46.98;101583.13;5045899;28;20045;-73
2022/06/18 07:06:39;;;;;;;10.27;6.25;;;;;;;26.15;47.11;101586.06;5036190;28;20052;-73
2022/06/18 07:09:08;;;;;;;14.60;5.47;;;;;;;26.09;47.66;101588.44;5042389;28;20096;-75
2022/06/18 07:11:39;;;;;;;14.30;5.43;;;;;;;26.08;48.44;101592.97;5035325;28;20046;-76
2022/06/18 07:14:06;;;;;;;13.45;6.07;;;;;;;26.09;47.53;101583.03;5060785;28;20042;-76
2022/06/18 07:16:35;;;;;;;16.10;6.13;;;;;;;26.05;47.91;101585.97;5038001;28;20038;-76
2022/06/18 07:19:09;;;;;;;12.57;6.07;;;;;;;26.09;47.91;101583.91;5029286;28;20046;-76
2022/06/18 07:21:36;;;;;;;19.08;6.10;;;;;;;26.10;48.04;101585.63;5041703;28;20053;-77
2022/06/18 07:24:04;;;;;;;13.65;6.03;;;;;;;26.12;48.45;101583.66;5048366;28;20030;-76
2022/06/18 07:26:31;;;;;;;11.18;6.22;;;;;;;26.16;48.13;101582.38;5048206;28;20080;-75
2022/06/18 07:28:58;;;;;;;15.32;6.80;;;;;;;26.20;48.03;101593.78;5039650;28;20061;-77
2022/06/18 07:31:32;;;;;;;13.52;6.38;;;;;;;26.27;47.82;101586.88;5045243;28;20049;-75
2022/06/18 07:34:05;;;;;;;11.50;5.90;;;;;;;26.34;47.75;101587.22;5046240;28;20060;-76
2022/06/18 07:36:33;;;;;;;23.42;6.45;;;;;;;26.43;47.54;101585.56;5042775;28;20041;-74
2022/06/18 07:39:01;;;;;;;12.75;5.78;;;;;;;26.53;47.61;101583.75;5042197;28;20047;-74
2022/06/18 07:41:37;;;;;;;12.18;6.50;;;;;;;26.62;47.44;101588.38;5044009;28;20088;-74
2022/06/18 07:44:04;;;;;;;12.35;6.13;;;;;;;26.69;47.21;101583.28;5048003;28;20041;-73
2022/06/18 07:46:32;;;;;;;12.05;6.70;;;;;;;26.75;47.34;101579.19;5047160;28;20570;-74
2022/06/18 07:48:59;;;;;;;14.35;6.88;;;;;;;26.83;47.18;101579.41;5044411;28;20057;-73
2022/06/18 07:51:27;;;;;;;13.43;6.63;;;;;;;26.88;46.72;101579.88;5046405;28;20069;-74
2022/06/18 07:53:55;;;;;;;10.23;6.22;;;;;;;26.92;46.99;101572.31;5044067;28;20052;-75
2022/06/18 07:56:22;;;;;;;12.35;6.45;;;;;;;26.98;47.09;101571.75;5042080;28;20116;-74
2022/06/18 07:58:50;;;;;;;15.63;6.40;;;;;;;27.04;47.00;101575.78;5044576;28;20042;-75
2022/06/18 08:01:20;;;;;;;11.57;6.50;;;;;;;27.07;47.11;101570.94;5048626;28;20484;-75
2022/06/18 08:03:49;;;;;;;13.70;6.60;;;;;;;27.09;46.83;101565.41;5042962;28;20100;-73
2022/06/18 08:06:16;;;;;;;16.40;6.63;;;;;;;27.09;47.18;101563.56;5039425;28;20121;-73
2022/06/18 08:08:43;;;;;;;21.48;7.25;;;;;;;27.12;47.21;101570.53;5047230;28;20127;-75
2022/06/18 08:11:15;;;;;;;12.23;6.28;;;;;;;27.19;47.03;101563.59;5030171;28;20050;-73
2022/06/18 08:13:43;;;;;;;13.60;6.53;;;;;;;27.25;47.12;101563.03;5036428;28;20044;-74
2022/06/18 08:16:14;;;;;;;12.88;6.00;;;;;;;27.33;46.98;101565.03;5046447;28;20050;-75
2022/06/18 08:18:42;;;;;;;8.25;5.70;;;;;;;27.40;46.76;101560.78;5032362;28;20548;-76
2022/06/18 08:21:21;;;;;;;11.18;5.90;;;;;;;27.46;46.64;101551.28;5029171;28;20044;-73
2022/06/18 08:23:51;;;;;;;11.07;6.13;;;;;;;27.59;46.10;101559.13;5046644;28;20143;-76
2022/06/18 08:26:19;;;;;;;12.82;5.88;;;;;;;27.67;45.85;101553.00;5048528;28;20041;-72
2022/06/18 08:28:47;;;;;;;11.18;6.80;;;;;;;27.67;45.83;101542.16;5047730;28;20120;-76
2022/06/18 08:31:15;;;;;;;14.07;6.15;;;;;;;27.68;45.93;101546.59;5048040;28;20049;-73
2022/06/18 08:33:42;;;;;;;10.70;6.03;;;;;;;27.80;46.06;101555.41;5036579;28;20179;-75
2022/06/18 08:36:15;;;;;;;13.52;6.38;;;;;;;27.88;45.75;101547.44;5027873;28;20068;-72
2022/06/18 08:38:48;;;;;;;12.95;5.47;;;;;;;28.01;45.58;101556.13;5027713;28;20042;-73
2022/06/18 08:41:34;;;;;;;14.45;5.70;;;;;;;28.13;45.33;101553.31;5031803;28;20050;-75
2022/06/18 08:44:13;;;;;;;13.45;5.70;;;;;;;28.26;45.75;101558.41;5047684;28;20096;-71
2022/06/18 08:46:59;;;;;;;13.57;6.07;;;;;;;28.38;45.11;101553.69;5047261;28;20062;-75
2022/06/18 08:49:40;;;;;;;10.73;5.88;;;;;;;28.44;45.14;101555.81;5028358;28;20046;-72
2022/06/18 08:52:28;;;;;;;16.20;6.43;;;;;;;28.45;45.06;101561.06;5027765;28;20902;-73
2022/06/18 08:55:44;;;;;;;14.40;5.88;;;;;;;28.55;44.94;101549.34;5027474;28;20540;-78
2022/06/18 08:58:40;;;;;;;12.68;5.80;;;;;;;28.63;44.21;101544.06;5045969;28;20095;-76
2022/06/18 09:01:19;;;;;;;12.10;6.05;;;;;;;28.61;44.08;101544.19;5048561;28;20191;-73
2022/06/18 09:04:28;;;;;;;14.98;6.93;;;;;;;28.70;43.92;101549.72;5029091;28;20476;-73
2022/06/18 09:07:09;;;;;;;13.18;5.90;;;;;;;28.73;42.90;101554.88;5039426;28;20108;-74
2022/06/18 09:10:10;;;;;;;14.25;7.70;;;;;;;28.75;42.97;101556.44;5046586;28;21016;-73
2022/06/18 09:12:55;;;;;;;15.32;6.97;;;;;;;28.76;43.42;101549.16;5047410;28;20038;-76
2022/06/18 09:15:34;;;;;;;14.80;7.07;;;;;;;28.86;43.86;101554.53;5047743;28;20562;-75
2022/06/18 09:18:15;;;;;;;13.80;6.53;;;;;;;28.92;43.53;101553.94;5047462;28;20041;-76
2022/06/18 09:20:59;;;;;;;12.52;7.35;;;;;;;29.00;43.66;101555.91;5046473;28;20041;-76
2022/06/18 09:23:38;;;;;;;17.63;8.07;;;;;;;29.15;42.99;101561.69;5043761;28;20041;-77
2022/06/18 09:26:18;;;;;;;12.90;6.90;;;;;;;29.22;42.78;101565.50;5043840;28;20041;-73
2022/06/18 09:29:34;;;;;;;12.00;6.63;;;;;;;29.28;42.70;101563.03;5046388;28;20103;-74
2022/06/18 09:32:37;;;;;;;14.15;7.90;;;;;;;29.41;41.69;101576.25;5039171;28;20069;-77
2022/06/18 09:35:15;;;;;;;13.68;6.72;;;;;;;29.38;41.66;101559.44;5041689;28;20041;-74
2022/06/18 09:38:04;;;;;;;17.48;5.90;;;;;;;29.41;41.77;101562.69;5042597;28;20042;-75
2022/06/18 09:40:38;;;;;;;15.50;6.60;;;;;;;29.51;42.15;101559.88;5049248;28;20701;-75
2022/06/18 09:43:37;;;;;;;15.45;7.10;;;;;;;29.63;41.78;101554.22;5047953;28;20057;-74
2022/06/18 09:46:18;;;;;;;13.15;6.90;;;;;;;29.69;42.12;101549.03;5046763;28;20542;-77
2022/06/18 09:48:45;;;;;;;13.88;7.00;;;;;;;29.76;42.04;101554.72;5047156;28;20486;-77
2022/06/18 09:51:37;;;;;;;14.50;6.40;;;;;;;29.87;42.11;101546.31;5049534;28;20029;-77
2022/06/18 09:54:07;;;;;;;12.32;6.22;;;;;;;30.00;42.20;101537.78;5047933;28;20049;-76
2022/06/18 09:56:46;;;;;;;14.50;6.57;;;;;;;30.15;41.58;101531.78;5047870;28;20056;-77
2022/06/18 09:59:30;;;;;;;19.73;6.47;;;;;;;30.24;41.19;101538.97;5047989;28;20061;-75
2022/06/18 10:01:58;;;;;;;15.02;5.90;;;;;;;30.30;41.25;101532.88;5045805;28;20064;-75
2022/06/18 10:07:28;;;;;;;13.45;5.72;;;;;;;30.52;41.62;101530.63;5046076;28;20585;-77
2022/06/18 10:10:15;;;;;;;11.18;4.95;;;;;;;30.66;39.53;101526.50;5049875;28;20920;-76
2022/06/18 10:12:53;;;;;;;13.10;5.88;;;;;;;30.75;38.88;101521.94;5045257;28;20052;-76
2022/06/18 10:15:23;;;;;;;11.18;5.35;;;;;;;30.80;38.62;101525.00;5043852;28;20471;-76
2022/06/18 10:18:02;;;;;;;10.35;4.72;;;;;;;30.85;38.30;101516.34;5048962;28;20546;-77
2022/06/18 10:20:56;;;;;;;12.57;5.45;;;;;;;30.82;37.94;101517.53;5049016;28;20656;-75
2022/06/18 10:23:38;;;;;;;;;;;;;;;30.80;38.14;101508.69;5044245;28;20692;-75
2022/06/18 10:26:39;;;;;;;12.75;5.78;;;;;;;30.87;38.64;101509.75;5049310;28;19928;-74
2022/06/18 10:29:39;;;;;;;9.82;5.22;;;;;;;30.96;38.99;101507.91;5045005;28;20131;-75
2022/06/18 10:32:37;;;;;;;15.85;5.47;;;;;;;31.03;38.66;101518.97;5041743;28;20044;-75
2022/06/18 10:35:59;;;;;;;13.02;5.32;;;;;;;31.12;38.21;101518.00;5045693;28;20111;-76
2022/06/18 10:38:43;;;;;;;14.30;4.90;;;;;;;31.16;38.02;101510.38;5046939;28;20038;-75
2022/06/18 10:41:21;;;;;;;10.85;5.70;;;;;;;31.22;38.22;101507.81;5048094;28;20495;-76
2022/06/18 10:44:13;;;;;;;11.55;4.65;;;;;;;31.27;37.59;101510.06;5037025;28;20053;-76
2022/06/18 10:46:41;;;;;;;16.20;5.30;;;;;;;31.36;38.11;101510.94;5043082;28;20042;-76
2022/06/18 10:49:09;;;;;;;15.75;5.63;;;;;;;31.39;37.78;101510.59;5040866;28;20801;-75
2022/06/18 10:51:47;;;;;;;11.50;5.55;;;;;;;31.41;38.62;101505.81;5049558;28;20045;-73
2022/06/18 10:54:15;;;;;;;15.63;5.63;;;;;;;31.48;38.02;101504.13;5043627;28;20084;-72
2022/06/18 10:56:53;;;;;;;10.38;5.32;;;;;;;31.59;37.23;101495.59;5048228;28;20048;-74
2022/06/18 10:59:37;;;;;;;14.63;5.75;;;;;;;31.70;38.21;101490.88;5042789;28;20585;-74
2022/06/18 11:02:41;;;;;;;12.68;5.10;;;;;;;31.82;36.99;101505.03;5048427;28;20084;-72
2022/06/18 11:05:37;;;;;;;12.27;4.30;;;;;;;31.85;36.17;101491.03;5043435;28;20054;-73
2022/06/18 11:08:28;;;;;;;9.75;4.35;;;;;;;31.94;36.07;101479.13;5042868;28;20049;-76
2022/06/18 11:11:13;;;;;;;15.05;4.60;;;;;;;32.02;36.91;101491.88;5047369;28;20174;-74
2022/06/18 11:13:44;;;;;;;13.95;4.82;;;;;;;32.11;36.75;101487.25;5046251;28;20088;-76
2022/06/18 11:16:26;;;;;;;25.30;4.72;;;;;;;32.20;36.23;101480.75;5046737;28;20050;-77
2022/06/18 11:19:13;;;;;;;10.77;4.45;;;;;;;32.18;35.51;101486.41;5041254;28;20046;-75
2022/06/18 11:21:45;;;;;;;8.93;4.40;;;;;;;32.18;35.59;101480.94;5037530;28;20050;-77
2022/06/18 11:24:13;;;;;;;15.18;4.65;;;;;;;32.20;35.81;101484.31;5037741;28;20034;-74
2022/06/18 11:26:56;;;;;;;13.10;4.68;;;;;;;32.20;35.16;101476.13;5045270;28;20132;-72
2022/06/18 11:29:40;;;;;;;17.20;5.15;;;;;;;32.28;34.87;101466.28;5042778;28;20645;-72
2022/06/18 11:32:35;;;;;;;15.60;5.53;;;;;;;32.32;35.67;101464.88;5035936;28;20530;-77
2022/06/18 11:35:08;;;;;;;13.02;4.78;;;;;;;32.33;35.76;101456.56;5047006;28;20038;-76
2022/06/18 11:37:35;;;;;;;10.02;4.80;;;;;;;32.38;35.69;101453.28;5043781;28;20523;-74
2022/06/18 11:40:11;;;;;;;8.25;4.70;;;;;;;32.53;36.06;101442.50;5047436;28;20504;-76
2022/06/18 11:42:49;;;;;;;16.42;4.95;;;;;;;32.65;34.97;101443.81;5044544;28;20041;-74
2022/06/18 11:45:45;;;;;;;13.45;4.80;;;;;;;32.67;35.02;101436.25;5029616;28;21009;-74
2022/06/18 11:48:47;;;;;;;12.55;4.32;;;;;;;32.83;34.79;101438.09;5041254;28;20037;-74
2022/06/18 11:51:42;;;;;;;13.25;5.10;;;;;;;33.02;33.75;101418.69;5046274;28;20073;-74
2022/06/18 11:54:30;;;;;;;13.02;4.43;;;;;;;33.08;34.11;101421.56;5044065;28;20863;-75
2022/06/18 11:57:38;;;;;;;8.43;4.03;;;;;;;33.22;33.90;101416.34;5045442;28;20069;-74
2022/06/18 12:00:22;;;;;;;18.00;4.43;;;;;;;33.23;33.57;101423.47;5043594;28;20046;-77
2022/06/18 12:03:09;;;;;;;15.95;4.60;;;;;;;33.27;33.87;101420.19;5043751;28;20115;-76
2022/06/18 12:05:47;;;;;;;10.00;4.18;;;;;;;33.35;33.60;101402.09;5044222;28;21028;-76
2022/06/18 12:08:20;;;;;;;15.95;4.30;;;;;;;33.45;33.03;101411.72;5041803;28;20462;-75
2022/06/18 12:11:00;;;;;;;11.07;3.90;;;;;;;33.51;33.04;101409.28;5040233;28;20160;-76
2022/06/18 12:13:42;;;;;;;11.10;4.13;;;;;;;33.52;33.30;101411.81;5040315;28;20116;-76
2022/06/18 12:16:23;;;;;;;9.32;3.85;;;;;;;33.54;33.29;101404.31;5041456;28;20061;-75
2022/06/18 12:19:23;;;;;;;15.48;4.38;;;;;;;33.59;33.05;101407.31;5044714;28;20046;-76